Главная страница
METAR-TAF:

METAR-TAF

Аэропорты :

Frederick Municipal Airport

Фредерик, Мэриленд, США

широта: 39-25-03N, долгота: 077-22-28W, высота над уровнем моря: 92 м

Текущие метеонаблюдения

Эта сводка был подготовлена 32 минут назад, в 11:47 UTC
Штиль
Температура 19°C
Влажность 73%
Давление 1024 hPa
Видимость: 16.1 км
Сплошная облачность на высоте 5000 фута

METAR: KFDK 251147Z 00000KT 10SM OVC050 19/14 A3023

Время: 08:19 (12:19 UTC)


TAF: отсутствует

Метеонаблюдения и прогнозы для более 4000 аэропортов (сводки METAR и TAF).

Имеющиеся станции представлены на карте желтыми и красными точками.

Чтобы увидеть название станции, наведите на нее мышь.

Затем щелкните, чтобы увидеть метеонаблюдения и метеопрогнозы.

Управление картой: чтобы увеличить масштаб, щелкните зеленые кнопки с черным крестиком; чтобы уменьшить масштаб, щелкните зеленую кнопку с тире; для просмотра соседних карт щелкайте зеленые стрелки.


METAR-TAF: